sensor_id;sensor_type;location;lat;lon;timestamp;P1;durP1;ratioP1;P2;durP2;ratioP2
43297;SDS011;28892;55.640;37.532;2023-05-27T00:02:21;12.40;;;8.48;;
43297;SDS011;28892;55.640;37.532;2023-05-27T00:04:47;10.10;;;8.13;;
43297;SDS011;28892;55.640;37.532;2023-05-27T00:07:13;13.65;;;8.50;;
43297;SDS011;28892;55.640;37.532;2023-05-27T00:09:39;11.30;;;8.57;;
43297;SDS011;28892;55.640;37.532;2023-05-27T00:12:05;9.32;;;8.25;;
43297;SDS011;28892;55.640;37.532;2023-05-27T00:14:31;9.95;;;8.95;;
43297;SDS011;28892;55.640;37.532;2023-05-27T00:16:57;10.25;;;8.48;;
43297;SDS011;28892;55.640;37.532;2023-05-27T00:19:25;9.45;;;8.55;;
43297;SDS011;28892;55.640;37.532;2023-05-27T00:21:51;10.25;;;8.98;;
43297;SDS011;28892;55.640;37.532;2023-05-27T00:24:20;10.45;;;8.55;;
43297;SDS011;28892;55.640;37.532;2023-05-27T00:26:46;9.55;;;8.27;;
43297;SDS011;28892;55.640;37.532;2023-05-27T00:29:12;12.13;;;8.25;;
43297;SDS011;28892;55.640;37.532;2023-05-27T00:31:38;8.98;;;8.02;;
43297;SDS011;28892;55.640;37.532;2023-05-27T00:34:03;8.55;;;7.70;;
43297;SDS011;28892;55.640;37.532;2023-05-27T00:36:30;9.57;;;8.00;;
43297;SDS011;28892;55.640;37.532;2023-05-27T00:38:59;9.00;;;7.90;;
43297;SDS011;28892;55.640;37.532;2023-05-27T00:41:25;9.48;;;7.70;;
43297;SDS011;28892;55.640;37.532;2023-05-27T00:43:55;10.05;;;7.72;;
43297;SDS011;28892;55.640;37.532;2023-05-27T00:46:24;8.80;;;7.43;;
43297;SDS011;28892;55.640;37.532;2023-05-27T00:48:50;9.05;;;7.50;;
43297;SDS011;28892;55.640;37.532;2023-05-27T00:51:16;8.88;;;7.10;;
43297;SDS011;28892;55.640;37.532;2023-05-27T00:53:43;8.00;;;7.25;;
43297;SDS011;28892;55.640;37.532;2023-05-27T00:56:10;9.32;;;7.60;;
43297;SDS011;28892;55.640;37.532;2023-05-27T00:58:41;8.40;;;7.57;;
43297;SDS011;28892;55.640;37.532;2023-05-27T01:01:08;11.40;;;7.28;;
43297;SDS011;28892;55.640;37.532;2023-05-27T01:03:34;13.85;;;8.57;;
43297;SDS011;28892;55.640;37.532;2023-05-27T01:06:23;9.32;;;7.85;;
43297;SDS011;28892;55.640;37.532;2023-05-27T01:14:28;8.48;;;7.60;;
43297;SDS011;28892;55.640;37.532;2023-05-27T01:16:58;8.60;;;7.70;;
43297;SDS011;28892;55.640;37.532;2023-05-27T01:19:27;8.80;;;7.57;;
43297;SDS011;28892;55.640;37.532;2023-05-27T01:22:05;10.02;;;7.85;;
43297;SDS011;28892;55.640;37.532;2023-05-27T01:24:41;9.45;;;7.82;;
43297;SDS011;28892;55.640;37.532;2023-05-27T01:27:10;9.70;;;7.88;;
43297;SDS011;28892;55.640;37.532;2023-05-27T01:29:42;9.83;;;8.17;;
43297;SDS011;28892;55.640;37.532;2023-05-27T01:37:40;9.77;;;8.25;;
43297;SDS011;28892;55.640;37.532;2023-05-27T01:40:08;9.93;;;7.90;;
43297;SDS011;28892;55.640;37.532;2023-05-27T01:42:43;8.50;;;7.63;;
43297;SDS011;28892;55.640;37.532;2023-05-27T01:45:13;8.50;;;6.85;;
43297;SDS011;28892;55.640;37.532;2023-05-27T01:47:40;8.10;;;7.25;;
43297;SDS011;28892;55.640;37.532;2023-05-27T01:50:08;9.68;;;6.90;;
43297;SDS011;28892;55.640;37.532;2023-05-27T01:52:43;8.57;;;7.65;;
43297;SDS011;28892;55.640;37.532;2023-05-27T01:55:13;10.27;;;7.43;;
43297;SDS011;28892;55.640;37.532;2023-05-27T01:58:14;8.95;;;6.93;;
43297;SDS011;28892;55.640;37.532;2023-05-27T02:00:40;8.95;;;7.50;;
43297;SDS011;28892;55.640;37.532;2023-05-27T02:03:06;7.80;;;6.97;;
43297;SDS011;28892;55.640;37.532;2023-05-27T02:05:32;8.43;;;7.30;;
43297;SDS011;28892;55.640;37.532;2023-05-27T02:07:59;8.80;;;7.20;;
43297;SDS011;28892;55.640;37.532;2023-05-27T02:10:28;7.90;;;7.10;;
43297;SDS011;28892;55.640;37.532;2023-05-27T02:12:54;8.05;;;7.22;;
43297;SDS011;28892;55.640;37.532;2023-05-27T02:15:20;9.90;;;7.53;;
43297;SDS011;28892;55.640;37.532;2023-05-27T02:17:51;8.07;;;7.25;;
43297;SDS011;28892;55.640;37.532;2023-05-27T02:20:23;9.05;;;7.70;;
43297;SDS011;28892;55.640;37.532;2023-05-27T02:23:19;9.27;;;7.32;;
43297;SDS011;28892;55.640;37.532;2023-05-27T02:25:45;11.43;;;7.80;;
43297;SDS011;28892;55.640;37.532;2023-05-27T02:28:11;10.70;;;7.32;;
43297;SDS011;28892;55.640;37.532;2023-05-27T02:30:38;8.55;;;7.63;;
43297;SDS011;28892;55.640;37.532;2023-05-27T02:33:06;8.50;;;7.68;;
43297;SDS011;28892;55.640;37.532;2023-05-27T02:35:34;9.48;;;7.95;;
43297;SDS011;28892;55.640;37.532;2023-05-27T02:38:09;11.05;;;7.90;;
43297;SDS011;28892;55.640;37.532;2023-05-27T02:40:44;13.07;;;7.90;;
43297;SDS011;28892;55.640;37.532;2023-05-27T02:43:35;9.75;;;7.80;;
43297;SDS011;28892;55.640;37.532;2023-05-27T02:46:11;10.20;;;7.20;;
43297;SDS011;28892;55.640;37.532;2023-05-27T02:48:49;10.38;;;7.20;;
43297;SDS011;28892;55.640;37.532;2023-05-27T02:51:35;10.23;;;8.05;;
43297;SDS011;28892;55.640;37.532;2023-05-27T02:54:02;8.40;;;7.57;;
43297;SDS011;28892;55.640;37.532;2023-05-27T02:56:28;9.18;;;7.78;;
43297;SDS011;28892;55.640;37.532;2023-05-27T02:59:01;9.48;;;7.47;;
43297;SDS011;28892;55.640;37.532;2023-05-27T03:01:40;9.73;;;6.97;;
43297;SDS011;28892;55.640;37.532;2023-05-27T03:07:16;8.00;;;7.20;;
43297;SDS011;28892;55.640;37.532;2023-05-27T03:09:42;7.25;;;6.65;;
43297;SDS011;28892;55.640;37.532;2023-05-27T03:15:44;7.05;;;6.28;;
43297;SDS011;28892;55.640;37.532;2023-05-27T03:18:39;7.13;;;5.90;;
43297;SDS011;28892;55.640;37.532;2023-05-27T03:21:05;8.75;;;5.95;;
43297;SDS011;28892;55.640;37.532;2023-05-27T03:23:31;9.32;;;6.00;;
43297;SDS011;28892;55.640;37.532;2023-05-27T03:25:57;6.47;;;5.80;;
43297;SDS011;28892;55.640;37.532;2023-05-27T03:28:27;7.78;;;5.85;;
43297;SDS011;28892;55.640;37.532;2023-05-27T03:30:54;5.72;;;5.18;;
43297;SDS011;28892;55.640;37.532;2023-05-27T03:33:39;5.90;;;5.18;;
43297;SDS011;28892;55.640;37.532;2023-05-27T03:36:09;5.10;;;4.70;;
43297;SDS011;28892;55.640;37.532;2023-05-27T03:38:36;6.50;;;4.72;;
43297;SDS011;28892;55.640;37.532;2023-05-27T03:41:12;5.80;;;5.15;;
43297;SDS011;28892;55.640;37.532;2023-05-27T03:43:38;5.90;;;4.60;;
43297;SDS011;28892;55.640;37.532;2023-05-27T03:46:07;6.35;;;5.05;;
43297;SDS011;28892;55.640;37.532;2023-05-27T03:48:36;8.65;;;4.88;;
43297;SDS011;28892;55.640;37.532;2023-05-27T03:51:01;7.28;;;5.07;;
43297;SDS011;28892;55.640;37.532;2023-05-27T03:53:29;4.97;;;4.47;;
43297;SDS011;28892;55.640;37.532;2023-05-27T03:55:55;5.55;;;4.72;;
43297;SDS011;28892;55.640;37.532;2023-05-27T03:58:22;5.50;;;4.88;;
43297;SDS011;28892;55.640;37.532;2023-05-27T04:00:48;7.88;;;4.80;;
43297;SDS011;28892;55.640;37.532;2023-05-27T04:03:15;5.43;;;4.53;;
43297;SDS011;28892;55.640;37.532;2023-05-27T04:05:40;5.57;;;4.65;;
43297;SDS011;28892;55.640;37.532;2023-05-27T04:08:06;6.63;;;4.68;;
43297;SDS011;28892;55.640;37.532;2023-05-27T04:10:50;7.72;;;4.28;;
43297;SDS011;28892;55.640;37.532;2023-05-27T04:13:29;5.22;;;4.72;;
43297;SDS011;28892;55.640;37.532;2023-05-27T04:15:55;6.68;;;4.38;;
43297;SDS011;28892;55.640;37.532;2023-05-27T04:18:25;5.70;;;4.60;;
43297;SDS011;28892;55.640;37.532;2023-05-27T04:21:00;6.10;;;4.78;;
43297;SDS011;28892;55.640;37.532;2023-05-27T04:23:47;5.65;;;3.97;;
43297;SDS011;28892;55.640;37.532;2023-05-27T04:26:13;4.43;;;4.00;;
43297;SDS011;28892;55.640;37.532;2023-05-27T04:28:44;4.07;;;3.67;;
43297;SDS011;28892;55.640;37.532;2023-05-27T04:31:20;4.55;;;3.95;;
43297;SDS011;28892;55.640;37.532;2023-05-27T04:33:59;5.22;;;4.28;;
43297;SDS011;28892;55.640;37.532;2023-05-27T04:36:25;9.63;;;4.28;;
43297;SDS011;28892;55.640;37.532;2023-05-27T04:38:58;9.75;;;4.20;;
43297;SDS011;28892;55.640;37.532;2023-05-27T04:41:27;10.95;;;4.43;;
43297;SDS011;28892;55.640;37.532;2023-05-27T04:44:35;8.43;;;4.15;;
43297;SDS011;28892;55.640;37.532;2023-05-27T04:47:02;5.15;;;3.70;;
43297;SDS011;28892;55.640;37.532;2023-05-27T04:49:30;7.32;;;4.20;;
43297;SDS011;28892;55.640;37.532;2023-05-27T04:52:02;5.53;;;3.67;;
43297;SDS011;28892;55.640;37.532;2023-05-27T04:54:28;6.70;;;3.70;;
43297;SDS011;28892;55.640;37.532;2023-05-27T04:56:56;5.03;;;3.72;;
43297;SDS011;28892;55.640;37.532;2023-05-27T04:59:27;7.83;;;3.50;;
43297;SDS011;28892;55.640;37.532;2023-05-27T05:02:19;7.25;;;3.55;;
43297;SDS011;28892;55.640;37.532;2023-05-27T05:05:06;4.70;;;3.50;;
43297;SDS011;28892;55.640;37.532;2023-05-27T05:07:38;5.55;;;3.60;;
43297;SDS011;28892;55.640;37.532;2023-05-27T05:10:07;4.20;;;3.22;;
43297;SDS011;28892;55.640;37.532;2023-05-27T05:12:38;5.20;;;3.53;;
43297;SDS011;28892;55.640;37.532;2023-05-27T05:15:51;5.75;;;3.97;;
43297;SDS011;28892;55.640;37.532;2023-05-27T05:18:02;5.18;;;3.17;;
43297;SDS011;28892;55.640;37.532;2023-05-27T05:20:28;7.18;;;3.60;;
43297;SDS011;28892;55.640;37.532;2023-05-27T05:22:55;7.13;;;3.80;;
43297;SDS011;28892;55.640;37.532;2023-05-27T05:25:22;6.05;;;3.42;;
43297;SDS011;28892;55.640;37.532;2023-05-27T05:27:52;5.60;;;3.70;;
43297;SDS011;28892;55.640;37.532;2023-05-27T05:30:19;4.28;;;3.65;;
43297;SDS011;28892;55.640;37.532;2023-05-27T05:32:50;5.15;;;4.00;;
43297;SDS011;28892;55.640;37.532;2023-05-27T05:35:35;4.68;;;3.42;;
43297;SDS011;28892;55.640;37.532;2023-05-27T05:38:31;4.55;;;3.20;;
43297;SDS011;28892;55.640;37.532;2023-05-27T05:40:57;4.68;;;3.40;;
43297;SDS011;28892;55.640;37.532;2023-05-27T05:43:23;5.40;;;3.40;;
43297;SDS011;28892;55.640;37.532;2023-05-27T05:45:50;4.68;;;2.85;;
43297;SDS011;28892;55.640;37.532;2023-05-27T05:56:27;5.93;;;3.15;;
43297;SDS011;28892;55.640;37.532;2023-05-27T05:59:06;3.75;;;3.00;;
43297;SDS011;28892;55.640;37.532;2023-05-27T06:10:08;4.53;;;2.92;;
43297;SDS011;28892;55.640;37.532;2023-05-27T06:12:45;5.82;;;3.40;;
43297;SDS011;28892;55.640;37.532;2023-05-27T06:15:11;7.53;;;4.40;;
43297;SDS011;28892;55.640;37.532;2023-05-27T06:17:43;7.75;;;4.65;;
43297;SDS011;28892;55.640;37.532;2023-05-27T06:20:10;7.70;;;3.40;;
43297;SDS011;28892;55.640;37.532;2023-05-27T06:22:36;8.15;;;6.35;;
43297;SDS011;28892;55.640;37.532;2023-05-27T06:25:26;7.18;;;3.83;;
43297;SDS011;28892;55.640;37.532;2023-05-27T06:28:15;6.80;;;5.20;;
43297;SDS011;28892;55.640;37.532;2023-05-27T06:30:44;12.77;;;7.80;;
43297;SDS011;28892;55.640;37.532;2023-05-27T06:33:15;12.73;;;7.18;;
43297;SDS011;28892;55.640;37.532;2023-05-27T06:35:41;14.48;;;12.93;;
43297;SDS011;28892;55.640;37.532;2023-05-27T06:38:09;7.05;;;5.25;;
43297;SDS011;28892;55.640;37.532;2023-05-27T06:40:36;12.68;;;8.52;;
43297;SDS011;28892;55.640;37.532;2023-05-27T06:43:10;5.45;;;3.20;;
43297;SDS011;28892;55.640;37.532;2023-05-27T06:45:54;7.90;;;4.30;;
43297;SDS011;28892;55.640;37.532;2023-05-27T06:48:45;7.00;;;3.70;;
43297;SDS011;28892;55.640;37.532;2023-05-27T06:51:21;6.10;;;2.75;;
43297;SDS011;28892;55.640;37.532;2023-05-27T06:53:55;9.00;;;4.72;;
43297;SDS011;28892;55.640;37.532;2023-05-27T06:57:09;7.65;;;5.00;;
43297;SDS011;28892;55.640;37.532;2023-05-27T06:59:57;4.90;;;3.10;;
43297;SDS011;28892;55.640;37.532;2023-05-27T07:02:23;4.70;;;3.47;;
43297;SDS011;28892;55.640;37.532;2023-05-27T07:04:51;5.50;;;3.40;;
43297;SDS011;28892;55.640;37.532;2023-05-27T07:07:23;7.45;;;5.45;;
43297;SDS011;28892;55.640;37.532;2023-05-27T07:09:49;4.13;;;2.75;;
43297;SDS011;28892;55.640;37.532;2023-05-27T07:12:29;5.50;;;2.60;;
43297;SDS011;28892;55.640;37.532;2023-05-27T07:15:20;5.55;;;3.97;;
43297;SDS011;28892;55.640;37.532;2023-05-27T07:17:59;4.70;;;2.72;;
43297;SDS011;28892;55.640;37.532;2023-05-27T07:20:25;4.53;;;3.03;;
43297;SDS011;28892;55.640;37.532;2023-05-27T07:22:51;7.05;;;4.10;;
43297;SDS011;28892;55.640;37.532;2023-05-27T07:25:20;4.80;;;2.35;;
43297;SDS011;28892;55.640;37.532;2023-05-27T07:27:55;8.27;;;2.85;;
43297;SDS011;28892;55.640;37.532;2023-05-27T07:30:27;5.97;;;2.80;;
43297;SDS011;28892;55.640;37.532;2023-05-27T07:32:57;10.95;;;3.33;;
43297;SDS011;28892;55.640;37.532;2023-05-27T07:35:26;7.13;;;2.70;;
43297;SDS011;28892;55.640;37.532;2023-05-27T07:37:52;5.30;;;2.58;;
43297;SDS011;28892;55.640;37.532;2023-05-27T07:40:30;4.13;;;2.55;;
43297;SDS011;28892;55.640;37.532;2023-05-27T07:42:55;7.63;;;2.45;;
43297;SDS011;28892;55.640;37.532;2023-05-27T07:45:24;5.90;;;2.40;;
43297;SDS011;28892;55.640;37.532;2023-05-27T07:47:51;6.68;;;2.50;;
43297;SDS011;28892;55.640;37.532;2023-05-27T07:50:17;5.70;;;2.95;;
43297;SDS011;28892;55.640;37.532;2023-05-27T07:52:53;16.45;;;3.25;;
43297;SDS011;28892;55.640;37.532;2023-05-27T07:55:23;5.13;;;2.47;;
43297;SDS011;28892;55.640;37.532;2023-05-27T07:57:49;5.00;;;2.60;;
43297;SDS011;28892;55.640;37.532;2023-05-27T08:00:15;4.97;;;2.58;;
43297;SDS011;28892;55.640;37.532;2023-05-27T08:03:02;6.97;;;2.88;;
43297;SDS011;28892;55.640;37.532;2023-05-27T08:05:49;3.33;;;2.67;;
43297;SDS011;28892;55.640;37.532;2023-05-27T08:08:31;4.25;;;2.53;;
43297;SDS011;28892;55.640;37.532;2023-05-27T08:14:50;5.55;;;3.05;;
43297;SDS011;28892;55.640;37.532;2023-05-27T08:18:43;5.18;;;4.28;;
43297;SDS011;28892;55.640;37.532;2023-05-27T08:21:13;7.13;;;4.90;;
43297;SDS011;28892;55.640;37.532;2023-05-27T08:24:02;6.25;;;5.03;;
43297;SDS011;28892;55.640;37.532;2023-05-27T08:34:08;5.95;;;4.32;;
43297;SDS011;28892;55.640;37.532;2023-05-27T08:45:31;6.95;;;4.72;;
43297;SDS011;28892;55.640;37.532;2023-05-27T08:49:02;7.40;;;4.35;;
43297;SDS011;28892;55.640;37.532;2023-05-27T08:51:38;12.63;;;8.63;;
43297;SDS011;28892;55.640;37.532;2023-05-27T08:58:16;5.90;;;4.05;;
43297;SDS011;28892;55.640;37.532;2023-05-27T09:00:52;5.30;;;3.33;;
43297;SDS011;28892;55.640;37.532;2023-05-27T09:04:01;8.38;;;5.47;;
43297;SDS011;28892;55.640;37.532;2023-05-27T09:06:32;8.32;;;4.28;;
43297;SDS011;28892;55.640;37.532;2023-05-27T09:09:01;4.80;;;2.90;;
43297;SDS011;28892;55.640;37.532;2023-05-27T09:11:38;4.95;;;3.63;;
43297;SDS011;28892;55.640;37.532;2023-05-27T09:14:23;6.00;;;5.00;;
43297;SDS011;28892;55.640;37.532;2023-05-27T09:17:04;7.20;;;5.85;;
43297;SDS011;28892;55.640;37.532;2023-05-27T09:19:37;6.28;;;4.22;;
43297;SDS011;28892;55.640;37.532;2023-05-27T09:33:37;7.13;;;3.53;;
43297;SDS011;28892;55.640;37.532;2023-05-27T09:40:19;9.00;;;6.57;;
43297;SDS011;28892;55.640;37.532;2023-05-27T09:42:54;7.93;;;4.57;;
43297;SDS011;28892;55.640;37.532;2023-05-27T09:45:48;6.63;;;3.72;;
43297;SDS011;28892;55.640;37.532;2023-05-27T09:48:24;7.32;;;2.92;;
43297;SDS011;28892;55.640;37.532;2023-05-27T09:53:43;5.75;;;3.22;;
43297;SDS011;28892;55.640;37.532;2023-05-27T09:56:15;6.40;;;2.90;;
43297;SDS011;28892;55.640;37.532;2023-05-27T09:59:02;8.88;;;2.75;;
43297;SDS011;28892;55.640;37.532;2023-05-27T10:01:56;8.43;;;3.15;;
43297;SDS011;28892;55.640;37.532;2023-05-27T10:15:33;7.63;;;3.00;;
43297;SDS011;28892;55.640;37.532;2023-05-27T10:18:02;6.40;;;3.00;;
43297;SDS011;28892;55.640;37.532;2023-05-27T10:20:41;5.88;;;3.20;;
43297;SDS011;28892;55.640;37.532;2023-05-27T10:27:46;4.63;;;3.47;;
43297;SDS011;28892;55.640;37.532;2023-05-27T10:30:18;5.43;;;2.80;;
43297;SDS011;28892;55.640;37.532;2023-05-27T10:32:54;3.67;;;3.00;;
43297;SDS011;28892;55.640;37.532;2023-05-27T10:35:21;7.32;;;3.33;;
43297;SDS011;28892;55.640;37.532;2023-05-27T10:37:53;4.97;;;3.85;;
43297;SDS011;28892;55.640;37.532;2023-05-27T10:40:26;4.10;;;3.00;;
43297;SDS011;28892;55.640;37.532;2023-05-27T10:43:27;5.53;;;3.20;;
43297;SDS011;28892;55.640;37.532;2023-05-27T10:46:03;3.67;;;2.60;;
43297;SDS011;28892;55.640;37.532;2023-05-27T10:48:34;4.85;;;2.53;;
43297;SDS011;28892;55.640;37.532;2023-05-27T10:51:02;7.72;;;3.05;;
43297;SDS011;28892;55.640;37.532;2023-05-27T10:53:28;3.70;;;2.60;;
43297;SDS011;28892;55.640;37.532;2023-05-27T10:56:15;4.72;;;2.80;;
43297;SDS011;28892;55.640;37.532;2023-05-27T10:58:58;5.88;;;3.00;;
43297;SDS011;28892;55.640;37.532;2023-05-27T11:04:51;6.18;;;2.70;;
43297;SDS011;28892;55.640;37.532;2023-05-27T11:08:11;5.47;;;2.90;;
43297;SDS011;28892;55.640;37.532;2023-05-27T12:50:09;6.18;;;2.42;;
43297;SDS011;28892;55.640;37.532;2023-05-27T12:52:35;4.38;;;2.90;;
43297;SDS011;28892;55.640;37.532;2023-05-27T12:55:01;4.72;;;2.67;;
43297;SDS011;28892;55.640;37.532;2023-05-27T12:57:29;5.07;;;2.40;;
43297;SDS011;28892;55.640;37.532;2023-05-27T12:59:58;4.97;;;2.58;;
43297;SDS011;28892;55.640;37.532;2023-05-27T13:02:31;3.40;;;2.92;;
43297;SDS011;28892;55.640;37.532;2023-05-27T13:12:35;4.32;;;2.90;;
43297;SDS011;28892;55.640;37.532;2023-05-27T13:15:12;4.03;;;2.60;;
43297;SDS011;28892;55.640;37.532;2023-05-27T13:17:43;4.75;;;2.58;;
43297;SDS011;28892;55.640;37.532;2023-05-27T13:23:24;4.78;;;3.25;;
43297;SDS011;28892;55.640;37.532;2023-05-27T13:25:50;8.23;;;3.50;;
43297;SDS011;28892;55.640;37.532;2023-05-27T13:28:25;5.18;;;3.20;;
43297;SDS011;28892;55.640;37.532;2023-05-27T13:35:29;7.03;;;3.75;;
43297;SDS011;28892;55.640;37.532;2023-05-27T13:37:55;5.30;;;2.40;;
43297;SDS011;28892;55.640;37.532;2023-05-27T13:47:29;4.80;;;2.78;;
43297;SDS011;28892;55.640;37.532;2023-05-27T13:50:15;5.25;;;2.47;;
43297;SDS011;28892;55.640;37.532;2023-05-27T13:53:21;7.05;;;2.90;;
43297;SDS011;28892;55.640;37.532;2023-05-27T13:55:47;6.25;;;2.92;;
43297;SDS011;28892;55.640;37.532;2023-05-27T14:05:56;5.38;;;2.60;;
43297;SDS011;28892;55.640;37.532;2023-05-27T14:11:55;5.97;;;2.67;;
43297;SDS011;28892;55.640;37.532;2023-05-27T14:15:00;7.80;;;4.55;;
43297;SDS011;28892;55.640;37.532;2023-05-27T14:21:00;3.80;;;3.42;;
43297;SDS011;28892;55.640;37.532;2023-05-27T14:23:29;8.60;;;6.55;;
43297;SDS011;28892;55.640;37.532;2023-05-27T14:26:04;5.68;;;3.90;;
43297;SDS011;28892;55.640;37.532;2023-05-27T14:28:33;5.97;;;3.85;;
43297;SDS011;28892;55.640;37.532;2023-05-27T14:30:59;7.18;;;3.10;;
43297;SDS011;28892;55.640;37.532;2023-05-27T14:33:25;5.18;;;3.33;;
43297;SDS011;28892;55.640;37.532;2023-05-27T14:35:51;5.55;;;2.70;;
43297;SDS011;28892;55.640;37.532;2023-05-27T14:38:18;6.10;;;2.92;;
43297;SDS011;28892;55.640;37.532;2023-05-27T14:40:44;4.53;;;2.67;;
43297;SDS011;28892;55.640;37.532;2023-05-27T14:43:10;4.88;;;2.10;;
43297;SDS011;28892;55.640;37.532;2023-05-27T14:45:38;3.05;;;2.33;;
43297;SDS011;28892;55.640;37.532;2023-05-27T14:48:10;7.25;;;2.83;;
43297;SDS011;28892;55.640;37.532;2023-05-27T14:50:40;4.78;;;2.58;;
43297;SDS011;28892;55.640;37.532;2023-05-27T14:53:16;7.05;;;2.92;;
43297;SDS011;28892;55.640;37.532;2023-05-27T14:55:44;7.07;;;2.53;;
43297;SDS011;28892;55.640;37.532;2023-05-27T14:58:16;5.10;;;2.58;;
43297;SDS011;28892;55.640;37.532;2023-05-27T15:00:46;8.15;;;3.05;;
43297;SDS011;28892;55.640;37.532;2023-05-27T15:38:37;5.97;;;2.88;;
43297;SDS011;28892;55.640;37.532;2023-05-27T15:41:05;3.40;;;2.45;;
43297;SDS011;28892;55.640;37.532;2023-05-27T15:43:33;3.03;;;2.30;;
43297;SDS011;28892;55.640;37.532;2023-05-27T15:46:02;4.28;;;2.50;;
43297;SDS011;28892;55.640;37.532;2023-05-27T15:48:31;4.63;;;2.63;;
43297;SDS011;28892;55.640;37.532;2023-05-27T15:51:00;6.38;;;2.67;;
43297;SDS011;28892;55.640;37.532;2023-05-27T15:53:27;4.75;;;3.00;;
43297;SDS011;28892;55.640;37.532;2023-05-27T15:59:22;4.20;;;2.40;;
43297;SDS011;28892;55.640;37.532;2023-05-27T16:01:51;6.40;;;2.72;;
43297;SDS011;28892;55.640;37.532;2023-05-27T16:04:16;7.80;;;3.95;;
43297;SDS011;28892;55.640;37.532;2023-05-27T16:06:42;4.93;;;3.65;;
43297;SDS011;28892;55.640;37.532;2023-05-27T16:09:18;8.10;;;2.75;;
43297;SDS011;28892;55.640;37.532;2023-05-27T16:14:51;7.93;;;2.60;;
43297;SDS011;28892;55.640;37.532;2023-05-27T16:32:35;4.38;;;2.20;;
43297;SDS011;28892;55.640;37.532;2023-05-27T16:35:01;10.52;;;3.25;;
43297;SDS011;28892;55.640;37.532;2023-05-27T16:37:31;4.63;;;2.40;;
43297;SDS011;28892;55.640;37.532;2023-05-27T16:40:05;4.63;;;2.80;;
43297;SDS011;28892;55.640;37.532;2023-05-27T16:42:40;6.93;;;4.68;;
43297;SDS011;28892;55.640;37.532;2023-05-27T16:45:09;6.25;;;4.90;;
43297;SDS011;28892;55.640;37.532;2023-05-27T16:47:37;6.88;;;3.53;;
43297;SDS011;28892;55.640;37.532;2023-05-27T16:50:13;12.68;;;7.88;;
43297;SDS011;28892;55.640;37.532;2023-05-27T16:52:51;8.48;;;6.45;;
43297;SDS011;28892;55.640;37.532;2023-05-27T16:57:44;8.73;;;3.88;;
43297;SDS011;28892;55.640;37.532;2023-05-27T17:00:15;10.90;;;5.35;;
43297;SDS011;28892;55.640;37.532;2023-05-27T17:07:15;9.38;;;3.38;;
43297;SDS011;28892;55.640;37.532;2023-05-27T17:09:42;7.18;;;4.20;;
43297;SDS011;28892;55.640;37.532;2023-05-27T17:15:27;14.00;;;10.77;;
43297;SDS011;28892;55.640;37.532;2023-05-27T17:17:53;9.90;;;6.25;;
43297;SDS011;28892;55.640;37.532;2023-05-27T17:20:19;7.55;;;4.00;;
43297;SDS011;28892;55.640;37.532;2023-05-27T17:23:07;11.05;;;4.10;;
43297;SDS011;28892;55.640;37.532;2023-05-27T17:25:34;8.98;;;4.38;;
43297;SDS011;28892;55.640;37.532;2023-05-27T17:28:02;7.53;;;3.30;;
43297;SDS011;28892;55.640;37.532;2023-05-27T17:30:31;5.75;;;2.90;;
43297;SDS011;28892;55.640;37.532;2023-05-27T17:33:01;7.97;;;3.08;;
43297;SDS011;28892;55.640;37.532;2023-05-27T17:35:27;12.57;;;3.50;;
43297;SDS011;28892;55.640;37.532;2023-05-27T17:37:53;4.10;;;2.85;;
43297;SDS011;28892;55.640;37.532;2023-05-27T17:40:21;7.70;;;2.75;;
43297;SDS011;28892;55.640;37.532;2023-05-27T17:42:48;8.07;;;2.70;;
43297;SDS011;28892;55.640;37.532;2023-05-27T17:45:14;7.20;;;3.00;;
43297;SDS011;28892;55.640;37.532;2023-05-27T17:47:43;7.88;;;3.03;;
43297;SDS011;28892;55.640;37.532;2023-05-27T17:50:09;9.02;;;3.08;;
43297;SDS011;28892;55.640;37.532;2023-05-27T17:52:38;10.07;;;3.28;;
43297;SDS011;28892;55.640;37.532;2023-05-27T17:55:10;8.20;;;2.97;;
43297;SDS011;28892;55.640;37.532;2023-05-27T17:57:36;4.25;;;2.58;;
43297;SDS011;28892;55.640;37.532;2023-05-27T18:00:05;6.30;;;3.05;;
43297;SDS011;28892;55.640;37.532;2023-05-27T18:02:35;6.05;;;3.28;;
43297;SDS011;28892;55.640;37.532;2023-05-27T18:05:02;5.47;;;2.80;;
43297;SDS011;28892;55.640;37.532;2023-05-27T18:07:31;6.55;;;3.40;;
43297;SDS011;28892;55.640;37.532;2023-05-27T18:09:57;6.10;;;3.30;;
43297;SDS011;28892;55.640;37.532;2023-05-27T18:12:23;5.43;;;2.90;;
43297;SDS011;28892;55.640;37.532;2023-05-27T18:14:51;6.07;;;3.17;;
43297;SDS011;28892;55.640;37.532;2023-05-27T18:17:26;5.43;;;2.75;;
43297;SDS011;28892;55.640;37.532;2023-05-27T18:20:08;7.70;;;3.95;;
43297;SDS011;28892;55.640;37.532;2023-05-27T18:25:47;5.88;;;3.03;;
43297;SDS011;28892;55.640;37.532;2023-05-27T18:28:53;6.80;;;3.20;;
43297;SDS011;28892;55.640;37.532;2023-05-27T18:31:26;3.60;;;2.58;;
43297;SDS011;28892;55.640;37.532;2023-05-27T18:33:58;6.43;;;3.00;;
43297;SDS011;28892;55.640;37.532;2023-05-27T18:36:47;6.78;;;3.00;;
43297;SDS011;28892;55.640;37.532;2023-05-27T18:39:23;6.80;;;3.40;;
43297;SDS011;28892;55.640;37.532;2023-05-27T18:42:01;9.07;;;3.05;;
43297;SDS011;28892;55.640;37.532;2023-05-27T18:44:37;7.45;;;2.60;;
43297;SDS011;28892;55.640;37.532;2023-05-27T18:47:06;6.35;;;2.72;;
43297;SDS011;28892;55.640;37.532;2023-05-27T18:49:41;5.40;;;2.38;;
43297;SDS011;28892;55.640;37.532;2023-05-27T18:52:07;7.65;;;2.92;;
43297;SDS011;28892;55.640;37.532;2023-05-27T18:54:33;6.03;;;2.70;;
43297;SDS011;28892;55.640;37.532;2023-05-27T18:56:59;4.63;;;2.78;;
43297;SDS011;28892;55.640;37.532;2023-05-27T18:59:25;5.70;;;2.78;;
43297;SDS011;28892;55.640;37.532;2023-05-27T19:02:05;4.80;;;2.85;;
43297;SDS011;28892;55.640;37.532;2023-05-27T19:04:46;8.10;;;2.70;;
43297;SDS011;28892;55.640;37.532;2023-05-27T19:07:13;6.47;;;2.60;;
43297;SDS011;28892;55.640;37.532;2023-05-27T19:09:40;10.40;;;2.65;;
43297;SDS011;28892;55.640;37.532;2023-05-27T19:12:07;4.28;;;2.70;;
43297;SDS011;28892;55.640;37.532;2023-05-27T19:14:33;8.05;;;2.10;;
43297;SDS011;28892;55.640;37.532;2023-05-27T19:17:00;5.15;;;2.60;;
43297;SDS011;28892;55.640;37.532;2023-05-27T19:19:29;4.22;;;2.70;;
43297;SDS011;28892;55.640;37.532;2023-05-27T19:26:05;3.67;;;2.83;;
43297;SDS011;28892;55.640;37.532;2023-05-27T19:28:34;5.13;;;2.67;;
43297;SDS011;28892;55.640;37.532;2023-05-27T19:31:05;7.53;;;2.25;;
43297;SDS011;28892;55.640;37.532;2023-05-27T19:33:33;6.43;;;2.45;;
43297;SDS011;28892;55.640;37.532;2023-05-27T19:36:02;7.78;;;2.78;;
43297;SDS011;28892;55.640;37.532;2023-05-27T19:38:29;5.45;;;2.55;;
43297;SDS011;28892;55.640;37.532;2023-05-27T19:40:55;3.60;;;2.17;;
43297;SDS011;28892;55.640;37.532;2023-05-27T19:43:27;8.52;;;2.60;;
43297;SDS011;28892;55.640;37.532;2023-05-27T19:45:52;4.57;;;2.58;;
43297;SDS011;28892;55.640;37.532;2023-05-27T19:48:19;5.57;;;2.17;;
43297;SDS011;28892;55.640;37.532;2023-05-27T19:50:44;6.05;;;2.47;;
43297;SDS011;28892;55.640;37.532;2023-05-27T19:53:10;5.05;;;2.15;;
43297;SDS011;28892;55.640;37.532;2023-05-27T19:55:49;4.38;;;2.40;;
43297;SDS011;28892;55.640;37.532;2023-05-27T19:58:32;6.55;;;2.45;;
43297;SDS011;28892;55.640;37.532;2023-05-27T20:01:03;6.30;;;2.50;;
43297;SDS011;28892;55.640;37.532;2023-05-27T20:03:30;7.22;;;2.33;;
43297;SDS011;28892;55.640;37.532;2023-05-27T20:05:58;2.90;;;2.30;;
43297;SDS011;28892;55.640;37.532;2023-05-27T20:08:23;4.18;;;2.35;;
43297;SDS011;28892;55.640;37.532;2023-05-27T20:10:50;7.32;;;2.50;;
43297;SDS011;28892;55.640;37.532;2023-05-27T20:13:21;4.32;;;2.00;;